sensor_id;sensor_type;location;lat;lon;timestamp;temperature;humidity
7972;DHT22;4031;49.758;6.120;2022-10-31T00:02:22;7.60;99.90
7972;DHT22;4031;49.758;6.120;2022-10-31T00:04:48;7.60;99.90
7972;DHT22;4031;49.758;6.120;2022-10-31T00:07:14;7.60;99.90
7972;DHT22;4031;49.758;6.120;2022-10-31T00:09:39;7.60;99.90
7972;DHT22;4031;49.758;6.120;2022-10-31T00:12:05;7.60;99.90
7972;DHT22;4031;49.758;6.120;2022-10-31T00:14:31;7.60;99.90
7972;DHT22;4031;49.758;6.120;2022-10-31T00:16:57;7.60;99.90
7972;DHT22;4031;49.758;6.120;2022-10-31T00:19:22;7.60;99.90
7972;DHT22;4031;49.758;6.120;2022-10-31T00:21:48;7.70;99.90
7972;DHT22;4031;49.758;6.120;2022-10-31T00:24:17;7.70;99.90
7972;DHT22;4031;49.758;6.120;2022-10-31T00:26:42;7.70;99.90
7972;DHT22;4031;49.758;6.120;2022-10-31T00:29:09;7.80;99.90
7972;DHT22;4031;49.758;6.120;2022-10-31T00:31:35;7.70;99.90
7972;DHT22;4031;49.758;6.120;2022-10-31T00:34:01;7.80;99.90
7972;DHT22;4031;49.758;6.120;2022-10-31T00:36:28;7.70;99.90
7972;DHT22;4031;49.758;6.120;2022-10-31T00:38:54;7.70;99.90
7972;DHT22;4031;49.758;6.120;2022-10-31T00:41:19;7.80;99.90
7972;DHT22;4031;49.758;6.120;2022-10-31T00:43:46;7.80;99.90
7972;DHT22;4031;49.758;6.120;2022-10-31T00:46:12;7.80;99.90
7972;DHT22;4031;49.758;6.120;2022-10-31T00:48:38;7.90;99.90
7972;DHT22;4031;49.758;6.120;2022-10-31T00:51:04;7.90;99.90
7972;DHT22;4031;49.758;6.120;2022-10-31T00:53:30;8.00;99.90
7972;DHT22;4031;49.758;6.120;2022-10-31T00:55:56;8.00;99.90
7972;DHT22;4031;49.758;6.120;2022-10-31T00:58:22;8.10;99.90
7972;DHT22;4031;49.758;6.120;2022-10-31T01:00:48;8.10;99.90
7972;DHT22;4031;49.758;6.120;2022-10-31T01:03:24;8.20;99.90
7972;DHT22;4031;49.758;6.120;2022-10-31T01:08:31;8.20;99.90
7972;DHT22;4031;49.758;6.120;2022-10-31T01:11:18;8.20;99.90
7972;DHT22;4031;49.758;6.120;2022-10-31T01:13:45;8.30;99.90
7972;DHT22;4031;49.758;6.120;2022-10-31T01:16:14;8.20;99.90
7972;DHT22;4031;49.758;6.120;2022-10-31T01:18:42;8.20;99.90
7972;DHT22;4031;49.758;6.120;2022-10-31T01:21:11;8.20;99.90
7972;DHT22;4031;49.758;6.120;2022-10-31T01:23:39;8.20;99.90
7972;DHT22;4031;49.758;6.120;2022-10-31T01:26:14;8.20;99.90
7972;DHT22;4031;49.758;6.120;2022-10-31T01:28:53;8.20;99.90
7972;DHT22;4031;49.758;6.120;2022-10-31T01:31:21;8.20;99.90
7972;DHT22;4031;49.758;6.120;2022-10-31T01:33:50;8.20;99.90
7972;DHT22;4031;49.758;6.120;2022-10-31T01:36:22;8.20;99.90
7972;DHT22;4031;49.758;6.120;2022-10-31T01:38:50;8.20;99.90
7972;DHT22;4031;49.758;6.120;2022-10-31T01:41:20;8.10;99.90
7972;DHT22;4031;49.758;6.120;2022-10-31T01:46:24;8.10;99.90
7972;DHT22;4031;49.758;6.120;2022-10-31T01:48:52;8.10;99.90
7972;DHT22;4031;49.758;6.120;2022-10-31T01:51:20;8.00;99.90
7972;DHT22;4031;49.758;6.120;2022-10-31T01:53:51;8.10;99.90
7972;DHT22;4031;49.758;6.120;2022-10-31T01:56:18;8.00;99.90
7972;DHT22;4031;49.758;6.120;2022-10-31T01:58:45;8.00;99.90
7972;DHT22;4031;49.758;6.120;2022-10-31T02:01:13;8.10;99.90
7972;DHT22;4031;49.758;6.120;2022-10-31T02:03:40;8.00;99.90
7972;DHT22;4031;49.758;6.120;2022-10-31T02:06:10;8.00;99.90
7972;DHT22;4031;49.758;6.120;2022-10-31T02:08:43;8.00;99.90
7972;DHT22;4031;49.758;6.120;2022-10-31T02:11:09;8.10;99.90
7972;DHT22;4031;49.758;6.120;2022-10-31T02:13:37;8.00;99.90
7972;DHT22;4031;49.758;6.120;2022-10-31T02:16:03;8.00;99.90
7972;DHT22;4031;49.758;6.120;2022-10-31T02:18:30;8.00;99.90
7972;DHT22;4031;49.758;6.120;2022-10-31T02:27:34;8.00;99.90
7972;DHT22;4031;49.758;6.120;2022-10-31T02:30:20;8.00;99.90
7972;DHT22;4031;49.758;6.120;2022-10-31T02:41:52;7.90;99.90
7972;DHT22;4031;49.758;6.120;2022-10-31T02:44:58;7.80;99.90
7972;DHT22;4031;49.758;6.120;2022-10-31T02:47:34;7.80;99.90
7972;DHT22;4031;49.758;6.120;2022-10-31T02:50:03;7.70;99.90
7972;DHT22;4031;49.758;6.120;2022-10-31T02:52:32;7.70;99.90
7972;DHT22;4031;49.758;6.120;2022-10-31T02:57:51;7.60;99.90
7972;DHT22;4031;49.758;6.120;2022-10-31T03:00:20;7.60;99.90
7972;DHT22;4031;49.758;6.120;2022-10-31T03:06:02;7.60;99.90
7972;DHT22;4031;49.758;6.120;2022-10-31T03:08:46;7.70;99.90
7972;DHT22;4031;49.758;6.120;2022-10-31T03:11:18;7.70;99.90
7972;DHT22;4031;49.758;6.120;2022-10-31T03:13:52;7.60;99.90
7972;DHT22;4031;49.758;6.120;2022-10-31T03:16:48;7.60;99.90
7972;DHT22;4031;49.758;6.120;2022-10-31T03:19:25;7.50;99.90
7972;DHT22;4031;49.758;6.120;2022-10-31T03:21:53;7.50;99.90
7972;DHT22;4031;49.758;6.120;2022-10-31T03:24:24;7.50;99.90
7972;DHT22;4031;49.758;6.120;2022-10-31T03:26:57;7.50;99.90
7972;DHT22;4031;49.758;6.120;2022-10-31T03:29:27;7.40;99.90
7972;DHT22;4031;49.758;6.120;2022-10-31T03:32:03;7.50;99.90
7972;DHT22;4031;49.758;6.120;2022-10-31T03:34:46;7.30;99.90
7972;DHT22;4031;49.758;6.120;2022-10-31T03:37:15;7.30;99.90
7972;DHT22;4031;49.758;6.120;2022-10-31T03:39:44;7.30;99.90
7972;DHT22;4031;49.758;6.120;2022-10-31T03:42:16;7.30;99.90
7972;DHT22;4031;49.758;6.120;2022-10-31T03:44:49;7.30;99.90
7972;DHT22;4031;49.758;6.120;2022-10-31T03:47:38;7.30;99.90
7972;DHT22;4031;49.758;6.120;2022-10-31T03:50:06;7.20;99.90
7972;DHT22;4031;49.758;6.120;2022-10-31T03:52:57;7.20;99.90
7972;DHT22;4031;49.758;6.120;2022-10-31T03:55:50;7.20;99.90
7972;DHT22;4031;49.758;6.120;2022-10-31T03:58:25;7.20;99.90
7972;DHT22;4031;49.758;6.120;2022-10-31T04:00:55;7.20;99.90
7972;DHT22;4031;49.758;6.120;2022-10-31T04:03:26;7.20;99.90
7972;DHT22;4031;49.758;6.120;2022-10-31T04:05:55;7.20;99.90
7972;DHT22;4031;49.758;6.120;2022-10-31T04:08:26;7.30;99.90
7972;DHT22;4031;49.758;6.120;2022-10-31T04:10:54;7.30;99.90
7972;DHT22;4031;49.758;6.120;2022-10-31T04:13:26;7.40;99.90
7972;DHT22;4031;49.758;6.120;2022-10-31T04:15:55;7.40;99.90
7972;DHT22;4031;49.758;6.120;2022-10-31T04:18:24;7.40;99.90
7972;DHT22;4031;49.758;6.120;2022-10-31T04:21:03;7.50;99.90
7972;DHT22;4031;49.758;6.120;2022-10-31T04:23:30;7.60;99.90
7972;DHT22;4031;49.758;6.120;2022-10-31T04:25:56;7.70;99.90
7972;DHT22;4031;49.758;6.120;2022-10-31T04:28:22;7.70;99.90
7972;DHT22;4031;49.758;6.120;2022-10-31T04:30:48;7.70;99.90
7972;DHT22;4031;49.758;6.120;2022-10-31T04:33:15;7.70;99.90
7972;DHT22;4031;49.758;6.120;2022-10-31T04:35:41;7.70;99.90
7972;DHT22;4031;49.758;6.120;2022-10-31T04:38:06;7.70;99.90
7972;DHT22;4031;49.758;6.120;2022-10-31T04:40:32;7.70;99.90
7972;DHT22;4031;49.758;6.120;2022-10-31T04:42:58;7.70;99.90
7972;DHT22;4031;49.758;6.120;2022-10-31T04:45:24;7.60;99.90
7972;DHT22;4031;49.758;6.120;2022-10-31T04:47:49;7.50;99.90
7972;DHT22;4031;49.758;6.120;2022-10-31T04:50:15;7.50;99.90
7972;DHT22;4031;49.758;6.120;2022-10-31T04:52:42;7.50;99.90
7972;DHT22;4031;49.758;6.120;2022-10-31T04:55:10;7.40;99.90
7972;DHT22;4031;49.758;6.120;2022-10-31T04:57:41;7.40;99.90
7972;DHT22;4031;49.758;6.120;2022-10-31T05:00:08;7.40;99.90
7972;DHT22;4031;49.758;6.120;2022-10-31T05:02:48;7.40;99.90
7972;DHT22;4031;49.758;6.120;2022-10-31T05:05:17;7.40;99.90
7972;DHT22;4031;49.758;6.120;2022-10-31T05:07:45;7.40;99.90
7972;DHT22;4031;49.758;6.120;2022-10-31T05:10:14;7.50;99.90
7972;DHT22;4031;49.758;6.120;2022-10-31T05:12:48;7.50;99.90
7972;DHT22;4031;49.758;6.120;2022-10-31T05:15:18;7.50;99.90
7972;DHT22;4031;49.758;6.120;2022-10-31T05:17:44;7.50;99.90
7972;DHT22;4031;49.758;6.120;2022-10-31T05:20:11;7.40;99.90
7972;DHT22;4031;49.758;6.120;2022-10-31T05:22:43;7.40;99.90
7972;DHT22;4031;49.758;6.120;2022-10-31T05:25:10;7.40;99.90
7972;DHT22;4031;49.758;6.120;2022-10-31T05:27:39;7.30;99.90
7972;DHT22;4031;49.758;6.120;2022-10-31T05:30:06;7.30;99.90
7972;DHT22;4031;49.758;6.120;2022-10-31T05:32:39;7.30;99.90
7972;DHT22;4031;49.758;6.120;2022-10-31T05:35:07;7.20;99.90
7972;DHT22;4031;49.758;6.120;2022-10-31T05:37:37;7.20;99.90
7972;DHT22;4031;49.758;6.120;2022-10-31T05:40:05;7.10;99.90
7972;DHT22;4031;49.758;6.120;2022-10-31T05:42:34;7.10;99.90
7972;DHT22;4031;49.758;6.120;2022-10-31T05:44:59;7.00;99.90
7972;DHT22;4031;49.758;6.120;2022-10-31T05:47:25;6.90;99.90
7972;DHT22;4031;49.758;6.120;2022-10-31T05:49:51;6.90;99.90
7972;DHT22;4031;49.758;6.120;2022-10-31T05:52:17;6.80;99.90
7972;DHT22;4031;49.758;6.120;2022-10-31T05:54:43;6.80;99.90
7972;DHT22;4031;49.758;6.120;2022-10-31T05:57:09;6.70;99.90
7972;DHT22;4031;49.758;6.120;2022-10-31T05:59:35;6.70;99.90
7972;DHT22;4031;49.758;6.120;2022-10-31T06:02:01;6.70;99.90
7972;DHT22;4031;49.758;6.120;2022-10-31T06:04:26;6.70;99.90
7972;DHT22;4031;49.758;6.120;2022-10-31T06:06:52;6.70;99.90
7972;DHT22;4031;49.758;6.120;2022-10-31T06:09:18;6.70;99.90
7972;DHT22;4031;49.758;6.120;2022-10-31T06:11:44;6.70;99.90
7972;DHT22;4031;49.758;6.120;2022-10-31T06:14:10;6.70;99.90
7972;DHT22;4031;49.758;6.120;2022-10-31T06:16:36;6.70;99.90
7972;DHT22;4031;49.758;6.120;2022-10-31T06:19:01;6.80;99.90
7972;DHT22;4031;49.758;6.120;2022-10-31T06:21:27;6.80;99.90
7972;DHT22;4031;49.758;6.120;2022-10-31T06:23:53;6.80;99.90
7972;DHT22;4031;49.758;6.120;2022-10-31T06:26:19;6.90;99.90
7972;DHT22;4031;49.758;6.120;2022-10-31T06:28:44;7.00;99.90
7972;DHT22;4031;49.758;6.120;2022-10-31T06:31:10;7.10;99.90
7972;DHT22;4031;49.758;6.120;2022-10-31T06:33:36;7.10;99.90
7972;DHT22;4031;49.758;6.120;2022-10-31T06:36:02;7.20;99.90
7972;DHT22;4031;49.758;6.120;2022-10-31T06:38:28;7.30;99.90
7972;DHT22;4031;49.758;6.120;2022-10-31T06:40:54;7.30;99.90
7972;DHT22;4031;49.758;6.120;2022-10-31T06:43:21;7.30;99.90
7972;DHT22;4031;49.758;6.120;2022-10-31T06:45:47;7.30;99.90
7972;DHT22;4031;49.758;6.120;2022-10-31T06:48:13;7.30;99.90
7972;DHT22;4031;49.758;6.120;2022-10-31T06:50:38;7.30;99.90
7972;DHT22;4031;49.758;6.120;2022-10-31T06:53:04;7.30;99.90
7972;DHT22;4031;49.758;6.120;2022-10-31T06:55:30;7.30;99.90
7972;DHT22;4031;49.758;6.120;2022-10-31T06:57:58;7.40;99.90
7972;DHT22;4031;49.758;6.120;2022-10-31T07:00:27;7.30;99.90
7972;DHT22;4031;49.758;6.120;2022-10-31T07:03:03;7.40;99.90
7972;DHT22;4031;49.758;6.120;2022-10-31T07:05:30;7.50;99.90
7972;DHT22;4031;49.758;6.120;2022-10-31T07:07:58;7.60;99.90
7972;DHT22;4031;49.758;6.120;2022-10-31T07:10:27;7.60;99.90
7972;DHT22;4031;49.758;6.120;2022-10-31T07:12:58;7.70;99.90
7972;DHT22;4031;49.758;6.120;2022-10-31T07:15:26;7.80;99.90
7972;DHT22;4031;49.758;6.120;2022-10-31T07:17:53;7.80;99.90
7972;DHT22;4031;49.758;6.120;2022-10-31T07:20:19;7.90;99.90
7972;DHT22;4031;49.758;6.120;2022-10-31T07:22:45;8.00;99.90
7972;DHT22;4031;49.758;6.120;2022-10-31T07:25:11;8.10;99.90
7972;DHT22;4031;49.758;6.120;2022-10-31T07:27:38;8.20;99.90
7972;DHT22;4031;49.758;6.120;2022-10-31T07:30:06;8.30;99.90
7972;DHT22;4031;49.758;6.120;2022-10-31T07:32:43;8.40;99.90
7972;DHT22;4031;49.758;6.120;2022-10-31T07:35:12;8.40;99.90
7972;DHT22;4031;49.758;6.120;2022-10-31T07:37:40;8.50;99.90
7972;DHT22;4031;49.758;6.120;2022-10-31T07:40:07;8.60;99.90
7972;DHT22;4031;49.758;6.120;2022-10-31T07:42:37;8.70;99.90
7972;DHT22;4031;49.758;6.120;2022-10-31T07:45:06;8.80;99.90
7972;DHT22;4031;49.758;6.120;2022-10-31T07:47:40;8.90;99.90
7972;DHT22;4031;49.758;6.120;2022-10-31T07:50:07;9.00;99.90
7972;DHT22;4031;49.758;6.120;2022-10-31T07:52:34;9.10;99.90
7972;DHT22;4031;49.758;6.120;2022-10-31T07:55:00;9.30;99.90
7972;DHT22;4031;49.758;6.120;2022-10-31T07:57:26;9.60;99.90
7972;DHT22;4031;49.758;6.120;2022-10-31T07:59:52;9.60;99.90
7972;DHT22;4031;49.758;6.120;2022-10-31T08:02:17;9.70;99.90
7972;DHT22;4031;49.758;6.120;2022-10-31T08:04:43;9.80;99.90
7972;DHT22;4031;49.758;6.120;2022-10-31T08:07:09;9.90;99.90
7972;DHT22;4031;49.758;6.120;2022-10-31T08:09:35;9.90;99.90
7972;DHT22;4031;49.758;6.120;2022-10-31T08:12:00;9.80;99.90
7972;DHT22;4031;49.758;6.120;2022-10-31T08:14:27;9.80;99.90
7972;DHT22;4031;49.758;6.120;2022-10-31T08:16:53;9.90;99.90
7972;DHT22;4031;49.758;6.120;2022-10-31T08:19:19;9.90;99.90
7972;DHT22;4031;49.758;6.120;2022-10-31T08:21:45;9.90;99.90
7972;DHT22;4031;49.758;6.120;2022-10-31T08:24:11;9.90;99.90
7972;DHT22;4031;49.758;6.120;2022-10-31T08:26:37;9.90;99.90
7972;DHT22;4031;49.758;6.120;2022-10-31T08:29:03;10.00;99.90
7972;DHT22;4031;49.758;6.120;2022-10-31T08:31:29;10.00;99.90
7972;DHT22;4031;49.758;6.120;2022-10-31T08:33:55;10.00;99.90
7972;DHT22;4031;49.758;6.120;2022-10-31T08:36:21;10.10;99.90
7972;DHT22;4031;49.758;6.120;2022-10-31T08:38:47;10.20;99.90
7972;DHT22;4031;49.758;6.120;2022-10-31T08:41:13;10.20;99.90
7972;DHT22;4031;49.758;6.120;2022-10-31T08:43:39;10.30;99.90
7972;DHT22;4031;49.758;6.120;2022-10-31T08:46:05;10.30;99.90
7972;DHT22;4031;49.758;6.120;2022-10-31T08:48:31;10.30;99.90
7972;DHT22;4031;49.758;6.120;2022-10-31T08:50:58;10.40;99.90
7972;DHT22;4031;49.758;6.120;2022-10-31T08:53:25;10.50;99.90
7972;DHT22;4031;49.758;6.120;2022-10-31T08:55:54;10.60;99.90
7972;DHT22;4031;49.758;6.120;2022-10-31T08:58:22;10.80;99.90
7972;DHT22;4031;49.758;6.120;2022-10-31T09:00:50;10.80;99.90
7972;DHT22;4031;49.758;6.120;2022-10-31T09:03:23;11.00;99.90
7972;DHT22;4031;49.758;6.120;2022-10-31T09:05:54;11.00;99.90
7972;DHT22;4031;49.758;6.120;2022-10-31T09:08:20;11.10;99.90
7972;DHT22;4031;49.758;6.120;2022-10-31T09:10:46;11.20;99.90
7972;DHT22;4031;49.758;6.120;2022-10-31T09:13:14;11.30;99.90
7972;DHT22;4031;49.758;6.120;2022-10-31T09:15:44;11.40;99.90
7972;DHT22;4031;49.758;6.120;2022-10-31T09:18:13;11.60;99.90
7972;DHT22;4031;49.758;6.120;2022-10-31T09:20:40;11.80;99.90
7972;DHT22;4031;49.758;6.120;2022-10-31T09:23:11;12.00;99.90
7972;DHT22;4031;49.758;6.120;2022-10-31T09:25:39;12.20;99.90
7972;DHT22;4031;49.758;6.120;2022-10-31T09:28:06;12.50;99.90
7972;DHT22;4031;49.758;6.120;2022-10-31T09:30:34;12.60;99.90
7972;DHT22;4031;49.758;6.120;2022-10-31T09:33:06;12.80;99.90
7972;DHT22;4031;49.758;6.120;2022-10-31T09:35:35;12.80;99.90
7972;DHT22;4031;49.758;6.120;2022-10-31T09:38:05;12.90;99.90
7972;DHT22;4031;49.758;6.120;2022-10-31T09:40:40;13.00;99.90
7972;DHT22;4031;49.758;6.120;2022-10-31T09:46:10;13.20;99.90
7972;DHT22;4031;49.758;6.120;2022-10-31T09:51:55;13.50;99.90
7972;DHT22;4031;49.758;6.120;2022-10-31T09:54:51;13.70;99.90
7972;DHT22;4031;49.758;6.120;2022-10-31T09:57:27;13.80;99.90
7972;DHT22;4031;49.758;6.120;2022-10-31T09:59:55;14.00;99.90
7972;DHT22;4031;49.758;6.120;2022-10-31T10:02:47;14.20;99.90
7972;DHT22;4031;49.758;6.120;2022-10-31T10:05:20;14.40;99.90
7972;DHT22;4031;49.758;6.120;2022-10-31T10:10:44;14.80;99.90
7972;DHT22;4031;49.758;6.120;2022-10-31T10:13:30;14.90;99.90
7972;DHT22;4031;49.758;6.120;2022-10-31T10:21:39;15.40;99.90
7972;DHT22;4031;49.758;6.120;2022-10-31T10:25:15;15.70;99.90
7972;DHT22;4031;49.758;6.120;2022-10-31T10:30:33;16.00;99.90
7972;DHT22;4031;49.758;6.120;2022-10-31T10:33:33;16.00;99.90
7972;DHT22;4031;49.758;6.120;2022-10-31T10:36:11;16.00;99.90
7972;DHT22;4031;49.758;6.120;2022-10-31T10:41:31;16.10;99.90
7972;DHT22;4031;49.758;6.120;2022-10-31T10:43:58;16.10;99.90
7972;DHT22;4031;49.758;6.120;2022-10-31T10:46:42;16.10;99.90
7972;DHT22;4031;49.758;6.120;2022-10-31T10:49:39;16.20;99.90
7972;DHT22;4031;49.758;6.120;2022-10-31T10:52:23;16.30;99.90
7972;DHT22;4031;49.758;6.120;2022-10-31T11:00:29;17.20;99.90
7972;DHT22;4031;49.758;6.120;2022-10-31T11:03:05;17.60;99.90
7972;DHT22;4031;49.758;6.120;2022-10-31T11:05:52;17.80;99.90
7972;DHT22;4031;49.758;6.120;2022-10-31T11:08:29;17.80;99.90
7972;DHT22;4031;49.758;6.120;2022-10-31T11:13:30;17.90;99.90
7972;DHT22;4031;49.758;6.120;2022-10-31T11:16:01;17.80;99.90
7972;DHT22;4031;49.758;6.120;2022-10-31T11:18:41;17.80;99.90
7972;DHT22;4031;49.758;6.120;2022-10-31T11:21:21;17.70;99.90
7972;DHT22;4031;49.758;6.120;2022-10-31T11:23:49;17.50;99.90
7972;DHT22;4031;49.758;6.120;2022-10-31T11:26:20;17.50;99.90
7972;DHT22;4031;49.758;6.120;2022-10-31T11:28:56;17.60;99.90
7972;DHT22;4031;49.758;6.120;2022-10-31T11:31:23;17.60;99.90
7972;DHT22;4031;49.758;6.120;2022-10-31T11:33:58;17.90;99.90
7972;DHT22;4031;49.758;6.120;2022-10-31T11:36:31;18.20;99.90
7972;DHT22;4031;49.758;6.120;2022-10-31T11:39:00;18.40;99.90
7972;DHT22;4031;49.758;6.120;2022-10-31T11:41:33;18.40;99.90
7972;DHT22;4031;49.758;6.120;2022-10-31T11:46:46;18.30;99.90
7972;DHT22;4031;49.758;6.120;2022-10-31T11:49:20;18.30;99.90
7972;DHT22;4031;49.758;6.120;2022-10-31T11:51:53;18.30;99.90
7972;DHT22;4031;49.758;6.120;2022-10-31T11:54:30;18.20;99.90
7972;DHT22;4031;49.758;6.120;2022-10-31T11:56:58;18.30;99.90
7972;DHT22;4031;49.758;6.120;2022-10-31T11:59:28;18.20;99.90
7972;DHT22;4031;49.758;6.120;2022-10-31T12:01:56;18.20;99.90
7972;DHT22;4031;49.758;6.120;2022-10-31T12:04:38;18.20;99.90
7972;DHT22;4031;49.758;6.120;2022-10-31T12:07:07;18.10;99.90
7972;DHT22;4031;49.758;6.120;2022-10-31T12:09:35;18.10;99.90
7972;DHT22;4031;49.758;6.120;2022-10-31T12:12:36;18.20;99.90
7972;DHT22;4031;49.758;6.120;2022-10-31T12:15:36;18.20;99.90
7972;DHT22;4031;49.758;6.120;2022-10-31T12:27:01;18.40;99.90
7972;DHT22;4031;49.758;6.120;2022-10-31T12:30:28;18.40;99.90
7972;DHT22;4031;49.758;6.120;2022-10-31T12:32:50;18.40;99.90
7972;DHT22;4031;49.758;6.120;2022-10-31T12:35:25;18.60;99.90
7972;DHT22;4031;49.758;6.120;2022-10-31T12:38:23;18.70;99.90
7972;DHT22;4031;49.758;6.120;2022-10-31T12:41:02;19.10;99.90
7972;DHT22;4031;49.758;6.120;2022-10-31T12:44:02;19.20;99.90
7972;DHT22;4031;49.758;6.120;2022-10-31T12:55:40;19.10;99.90
7972;DHT22;4031;49.758;6.120;2022-10-31T13:01:14;18.90;99.90
7972;DHT22;4031;49.758;6.120;2022-10-31T13:03:53;18.80;99.90
7972;DHT22;4031;49.758;6.120;2022-10-31T13:06:35;18.80;99.90
7972;DHT22;4031;49.758;6.120;2022-10-31T13:09:08;19.10;99.90
7972;DHT22;4031;49.758;6.120;2022-10-31T13:11:46;19.80;99.90
7972;DHT22;4031;49.758;6.120;2022-10-31T13:14:35;20.70;99.90
7972;DHT22;4031;49.758;6.120;2022-10-31T13:17:04;21.60;99.90
7972;DHT22;4031;49.758;6.120;2022-10-31T13:19:36;22.30;99.90
7972;DHT22;4031;49.758;6.120;2022-10-31T13:22:24;22.70;99.90
7972;DHT22;4031;49.758;6.120;2022-10-31T13:25:09;23.20;99.90
7972;DHT22;4031;49.758;6.120;2022-10-31T13:30:15;23.50;99.90
7972;DHT22;4031;49.758;6.120;2022-10-31T13:38:57;22.00;99.90
7972;DHT22;4031;49.758;6.120;2022-10-31T13:44:21;20.10;99.90
7972;DHT22;4031;49.758;6.120;2022-10-31T13:46:53;19.60;99.90
7972;DHT22;4031;49.758;6.120;2022-10-31T13:54:36;19.10;99.90
7972;DHT22;4031;49.758;6.120;2022-10-31T13:57:49;19.10;99.90
7972;DHT22;4031;49.758;6.120;2022-10-31T14:02:49;19.90;99.90
7972;DHT22;4031;49.758;6.120;2022-10-31T14:05:25;19.90;99.90
7972;DHT22;4031;49.758;6.120;2022-10-31T14:08:02;19.80;99.90
7972;DHT22;4031;49.758;6.120;2022-10-31T14:10:32;19.80;99.90
7972;DHT22;4031;49.758;6.120;2022-10-31T14:13:56;19.80;99.90
7972;DHT22;4031;49.758;6.120;2022-10-31T14:16:26;20.00;99.90
7972;DHT22;4031;49.758;6.120;2022-10-31T14:19:06;20.70;99.90
7972;DHT22;4031;49.758;6.120;2022-10-31T14:21:37;21.50;99.90
7972;DHT22;4031;49.758;6.120;2022-10-31T14:27:03;22.80;99.90
7972;DHT22;4031;49.758;6.120;2022-10-31T14:30:13;22.60;99.90
7972;DHT22;4031;49.758;6.120;2022-10-31T14:32:42;22.20;99.90
7972;DHT22;4031;49.758;6.120;2022-10-31T14:35:14;22.20;99.90
7972;DHT22;4031;49.758;6.120;2022-10-31T14:37:56;22.10;99.90
7972;DHT22;4031;49.758;6.120;2022-10-31T14:40:49;21.70;99.90
7972;DHT22;4031;49.758;6.120;2022-10-31T14:49:41;19.90;99.90
7972;DHT22;4031;49.758;6.120;2022-10-31T14:52:30;19.40;99.90
7972;DHT22;4031;49.758;6.120;2022-10-31T14:54:58;19.00;99.90
7972;DHT22;4031;49.758;6.120;2022-10-31T14:57:30;18.90;99.90
7972;DHT22;4031;49.758;6.120;2022-10-31T15:00:06;19.10;99.90
7972;DHT22;4031;49.758;6.120;2022-10-31T15:05:26;20.10;99.90
7972;DHT22;4031;49.758;6.120;2022-10-31T15:07:55;20.40;99.90
7972;DHT22;4031;49.758;6.120;2022-10-31T15:13:09;20.70;99.90
7972;DHT22;4031;49.758;6.120;2022-10-31T15:15:36;20.80;99.90
7972;DHT22;4031;49.758;6.120;2022-10-31T15:18:04;20.90;99.90
7972;DHT22;4031;49.758;6.120;2022-10-31T15:20:38;20.90;99.90
7972;DHT22;4031;49.758;6.120;2022-10-31T15:23:21;20.70;99.90
7972;DHT22;4031;49.758;6.120;2022-10-31T15:25:49;20.40;99.90
7972;DHT22;4031;49.758;6.120;2022-10-31T15:28:24;19.90;99.90
7972;DHT22;4031;49.758;6.120;2022-10-31T15:30:53;19.40;99.90
7972;DHT22;4031;49.758;6.120;2022-10-31T15:33:23;19.00;99.90
7972;DHT22;4031;49.758;6.120;2022-10-31T15:35:59;18.60;99.90
7972;DHT22;4031;49.758;6.120;2022-10-31T15:38:28;18.00;99.90
7972;DHT22;4031;49.758;6.120;2022-10-31T15:40:59;17.60;99.90
7972;DHT22;4031;49.758;6.120;2022-10-31T15:43:32;17.30;99.90
7972;DHT22;4031;49.758;6.120;2022-10-31T15:46:02;17.00;99.90
7972;DHT22;4031;49.758;6.120;2022-10-31T15:48:28;16.80;99.90
7972;DHT22;4031;49.758;6.120;2022-10-31T15:50:57;16.50;99.90
7972;DHT22;4031;49.758;6.120;2022-10-31T15:53:28;16.40;99.90
7972;DHT22;4031;49.758;6.120;2022-10-31T15:56:03;16.30;99.90
7972;DHT22;4031;49.758;6.120;2022-10-31T15:58:33;16.10;99.90
7972;DHT22;4031;49.758;6.120;2022-10-31T16:01:26;15.80;99.90
7972;DHT22;4031;49.758;6.120;2022-10-31T16:04:05;15.40;99.90
7972;DHT22;4031;49.758;6.120;2022-10-31T16:07:00;15.20;99.90
7972;DHT22;4031;49.758;6.120;2022-10-31T16:09:37;14.90;99.90
7972;DHT22;4031;49.758;6.120;2022-10-31T16:12:03;14.70;99.90
7972;DHT22;4031;49.758;6.120;2022-10-31T16:14:31;14.60;99.90
7972;DHT22;4031;49.758;6.120;2022-10-31T16:16:59;14.60;99.90
7972;DHT22;4031;49.758;6.120;2022-10-31T16:19:35;14.70;99.90
7972;DHT22;4031;49.758;6.120;2022-10-31T16:22:13;14.50;99.90
7972;DHT22;4031;49.758;6.120;2022-10-31T16:27:32;14.80;99.90
7972;DHT22;4031;49.758;6.120;2022-10-31T16:30:01;14.70;99.90
7972;DHT22;4031;49.758;6.120;2022-10-31T16:32:37;14.70;99.90
7972;DHT22;4031;49.758;6.120;2022-10-31T16:35:25;14.80;99.90
7972;DHT22;4031;49.758;6.120;2022-10-31T16:37:53;14.80;99.90
7972;DHT22;4031;49.758;6.120;2022-10-31T16:40:19;14.70;99.90
7972;DHT22;4031;49.758;6.120;2022-10-31T16:42:46;14.50;99.90
7972;DHT22;4031;49.758;6.120;2022-10-31T16:45:20;14.50;99.90
7972;DHT22;4031;49.758;6.120;2022-10-31T16:47:47;14.50;99.90
7972;DHT22;4031;49.758;6.120;2022-10-31T16:50:25;14.40;99.90
7972;DHT22;4031;49.758;6.120;2022-10-31T16:52:52;14.30;99.90
7972;DHT22;4031;49.758;6.120;2022-10-31T16:55:19;14.20;99.90
7972;DHT22;4031;49.758;6.120;2022-10-31T16:57:55;14.00;99.90
7972;DHT22;4031;49.758;6.120;2022-10-31T17:00:23;14.10;99.90
7972;DHT22;4031;49.758;6.120;2022-10-31T17:02:51;14.40;99.90
7972;DHT22;4031;49.758;6.120;2022-10-31T17:05:20;14.40;99.90
7972;DHT22;4031;49.758;6.120;2022-10-31T17:07:47;14.50;99.90
7972;DHT22;4031;49.758;6.120;2022-10-31T17:10:14;14.50;99.90
7972;DHT22;4031;49.758;6.120;2022-10-31T17:12:43;14.60;99.90
7972;DHT22;4031;49.758;6.120;2022-10-31T17:15:20;14.70;99.90
7972;DHT22;4031;49.758;6.120;2022-10-31T17:17:47;14.40;99.90
7972;DHT22;4031;49.758;6.120;2022-10-31T17:20:28;14.20;99.90
7972;DHT22;4031;49.758;6.120;2022-10-31T17:25:31;13.80;99.90
7972;DHT22;4031;49.758;6.120;2022-10-31T17:27:57;13.60;99.90
7972;DHT22;4031;49.758;6.120;2022-10-31T17:30:24;13.50;99.90
7972;DHT22;4031;49.758;6.120;2022-10-31T17:32:50;13.50;99.90
7972;DHT22;4031;49.758;6.120;2022-10-31T17:35:17;13.40;99.90
7972;DHT22;4031;49.758;6.120;2022-10-31T17:37:44;13.30;99.90
7972;DHT22;4031;49.758;6.120;2022-10-31T17:40:13;13.60;99.90
7972;DHT22;4031;49.758;6.120;2022-10-31T17:42:41;13.50;99.90
7972;DHT22;4031;49.758;6.120;2022-10-31T17:45:08;13.50;99.90
7972;DHT22;4031;49.758;6.120;2022-10-31T17:47:34;13.30;99.90
7972;DHT22;4031;49.758;6.120;2022-10-31T17:50:00;13.30;99.90
7972;DHT22;4031;49.758;6.120;2022-10-31T17:52:26;13.10;99.90
7972;DHT22;4031;49.758;6.120;2022-10-31T17:54:52;12.90;99.90
7972;DHT22;4031;49.758;6.120;2022-10-31T17:57:17;12.80;99.90
7972;DHT22;4031;49.758;6.120;2022-10-31T17:59:44;12.60;99.90
7972;DHT22;4031;49.758;6.120;2022-10-31T18:02:10;12.50;99.90
7972;DHT22;4031;49.758;6.120;2022-10-31T18:04:37;12.40;99.90
7972;DHT22;4031;49.758;6.120;2022-10-31T18:07:05;12.30;99.90
7972;DHT22;4031;49.758;6.120;2022-10-31T18:09:31;12.20;99.90
7972;DHT22;4031;49.758;6.120;2022-10-31T18:11:57;12.10;99.90
7972;DHT22;4031;49.758;6.120;2022-10-31T18:14:22;12.00;99.90
7972;DHT22;4031;49.758;6.120;2022-10-31T18:16:48;12.00;99.90
7972;DHT22;4031;49.758;6.120;2022-10-31T18:19:15;11.90;99.90
7972;DHT22;4031;49.758;6.120;2022-10-31T18:21:42;11.80;99.90
7972;DHT22;4031;49.758;6.120;2022-10-31T18:24:09;11.70;99.90
7972;DHT22;4031;49.758;6.120;2022-10-31T18:26:35;11.70;99.90
7972;DHT22;4031;49.758;6.120;2022-10-31T18:29:01;11.70;99.90
7972;DHT22;4031;49.758;6.120;2022-10-31T18:31:28;11.70;99.90
7972;DHT22;4031;49.758;6.120;2022-10-31T18:33:55;11.70;99.90
7972;DHT22;4031;49.758;6.120;2022-10-31T18:36:22;11.60;99.90